Time;durP1;ratioP1;P1;durP2;ratioP2;P2;SDS_P1;SDS_P2;PMS_P1;PMS_P2;Temp;Humidity;BMP_temperature;BMP_pressure;BME280_temperature;BME280_humidity;BME280_pressure;Samples;Min_cycle;Max_cycle;Signal;HPM_P1;HPM_P2
2022/05/27 00:00:38;;;;;;;;;;;;;;;28.44;31.98;101055.81;5078070;28;844;-42
2022/05/27 00:03:03;;;;;;;;;;;;;;;28.49;31.82;101057.97;5078605;28;790;-42
2022/05/27 00:05:29;;;;;;;;;;;;;;;28.40;32.26;101054.50;5059693;28;957;-41
2022/05/27 00:07:54;;;;;;;;;;;;;;;28.41;31.94;101055.34;5078266;28;829;-42
2022/05/27 00:10:19;;;;;;;;;;;;;;;28.43;31.51;101058.69;5077852;28;1897;-41
2022/05/27 00:12:44;;;;;;;;;;;;;;;28.45;31.51;101064.75;5078455;28;997;-41
2022/05/27 00:15:10;;;;;;;;;;;;;;;28.44;32.13;101060.38;5078112;28;883;-42
2022/05/27 00:17:36;;;;;;;;;;;;;;;28.41;31.71;101052.63;5078322;28;905;-42
2022/05/27 00:20:01;;;;;;;;;;;;;;;28.44;31.54;101058.53;5077662;28;905;-42
2022/05/27 00:22:26;;;;;;;;;;;;;;;28.42;31.13;101055.16;5077849;28;880;-41
2022/05/27 00:24:52;;;;;;;;;;;;;;;28.42;31.48;101052.44;5078060;28;1533;-41
2022/05/27 00:27:17;;;;;;;;;;;;;;;28.44;31.27;101046.84;5077701;28;1109;-42
2022/05/27 00:29:42;;;;;;;;;;;;;;;28.43;31.54;101056.81;5077723;28;1589;-41
2022/05/27 00:32:08;;;;;;;;;;;;;;;28.45;30.56;101054.78;5077771;28;1905;-42
2022/05/27 00:34:33;;;;;;;;;;;;;;;28.42;31.24;101057.00;5077370;28;832;-42
2022/05/27 00:37:01;;;;;;;;;;;;;;;28.48;31.26;101059.81;5078175;28;841;-41
2022/05/27 00:39:27;;;;;;;;;;;;;;;28.41;31.16;101063.47;5078108;28;832;-42
2022/05/27 00:41:52;;;;;;;;;;;;;;;28.41;31.36;101061.56;5077259;28;956;-42
2022/05/27 00:44:17;;;;;;;;;;;;;;;28.39;31.52;101055.53;5077058;28;729;-41
2022/05/27 00:46:43;;;;;;;;;;;;;;;28.34;30.85;101052.53;5076960;28;880;-41
2022/05/27 00:49:15;;;;;;;;;;;;;;;28.37;30.86;101057.56;5077282;28;798;-42
2022/05/27 00:51:46;;;;;;;;;;;;;;;28.43;31.25;101064.94;5059003;28;1901;-41
2022/05/27 00:54:13;;;;;;;;;;;;;;;28.38;30.78;101061.13;5077524;28;833;-41
2022/05/27 00:56:39;;;;;;;;;;;;;;;28.37;31.13;101060.28;5077632;28;786;-41
2022/05/27 00:59:05;;;;;;;;;;;;;;;28.43;31.24;101056.81;5076879;28;769;-42
2022/05/27 01:01:30;;;;;;;;;;;;;;;28.41;31.16;101060.75;5058175;28;850;-41
2022/05/27 01:03:56;;;;;;;;;;;;;;;28.41;31.09;101056.16;5077706;28;734;-42
2022/05/27 01:06:21;;;;;;;;;;;;;;;28.36;30.77;101054.00;5059073;28;810;-42
2022/05/27 01:08:47;;;;;;;;;;;;;;;28.34;30.67;101053.34;5077249;28;812;-41
2022/05/27 01:11:15;;;;;;;;;;;;;;;28.35;30.86;101057.75;5059384;28;1897;-41
2022/05/27 01:13:55;;;;;;;;;;;;;;;28.34;31.16;101058.75;5076314;28;1519;-41
2022/05/27 01:16:43;;;;;;;;;;;;;;;28.41;30.87;101055.34;5076627;28;868;-41
2022/05/27 01:22:19;;;;;;;;;;;;;;;28.24;30.59;101058.19;5070030;28;747;-41
2022/05/27 01:24:44;;;;;;;;;;;;;;;28.32;31.13;101066.22;5052168;28;1511;-41
2022/05/27 01:27:29;;;;;;;;;;;;;;;28.38;30.44;101067.34;5076513;28;1008;-41
2022/05/27 01:29:57;;;;;;;;;;;;;;;28.34;30.88;101066.06;5076925;28;845;-41
2022/05/27 01:32:23;;;;;;;;;;;;;;;28.33;31.22;101065.22;5076548;28;1981;-41
2022/05/27 01:34:54;;;;;;;;;;;;;;;28.31;30.76;101059.09;5076502;28;816;-42
2022/05/27 01:37:31;;;;;;;;;;;;;;;28.35;30.65;101065.88;5076556;28;787;-43
2022/05/27 01:40:06;;;;;;;;;;;;;;;28.33;31.17;101067.06;5076419;28;738;-43
2022/05/27 01:42:31;;;;;;;;;;;;;;;28.31;30.88;101066.41;5058294;28;821;-42
2022/05/27 01:45:13;;;;;;;;;;;;;;;28.33;30.76;101059.81;5076717;28;913;-43
2022/05/27 01:47:39;;;;;;;;;;;;;;;28.27;30.58;101067.78;5052296;28;1371;-43
2022/05/27 01:50:07;;;;;;;;;;;;;;;28.31;30.41;101056.41;5069735;28;1965;-42
2022/05/27 01:52:37;;;;;;;;;;;;;;;28.28;30.63;101062.19;5069780;28;775;-43
2022/05/27 01:55:29;;;;;;;;;;;;;;;28.35;30.55;101060.47;5051931;28;801;-42
2022/05/27 01:57:58;;;;;;;;;;;;;;;28.28;30.19;101064.06;5071592;28;958;-43
2022/05/27 02:00:24;;;;;;;;;;;;;;;28.29;30.50;101063.88;5058336;28;848;-42
2022/05/27 02:03:10;;;;;;;;;;;;;;;28.32;30.03;101065.38;5057974;28;786;-43
2022/05/27 02:05:41;;;;;;;;;;;;;;;28.28;30.79;101070.28;5075437;28;973;-43
2022/05/27 02:08:12;;;;;;;;;;;;;;;28.28;30.68;101069.47;5069816;28;845;-43
2022/05/27 02:10:43;;;;;;;;;;;;;;;28.32;30.75;101066.22;5058525;28;1906;-43
2022/05/27 02:13:14;;;;;;;;;;;;;;;28.36;30.66;101078.38;5076297;28;781;-43
2022/05/27 02:15:41;;;;;;;;;;;;;;;28.31;30.97;101067.22;5075708;28;875;-43
2022/05/27 02:18:12;;;;;;;;;;;;;;;28.31;30.11;101067.22;5058657;28;766;-42
2022/05/27 02:20:38;;;;;;;;;;;;;;;28.27;30.46;101071.34;5076044;28;959;-43
2022/05/27 02:23:15;;;;;;;;;;;;;;;28.34;30.39;101066.88;5058022;28;822;-41
2022/05/27 02:25:41;;;;;;;;;;;;;;;28.28;30.30;101070.28;5075655;28;1033;-41
2022/05/27 02:28:08;;;;;;;;;;;;;;;28.32;30.35;101057.25;5057400;28;841;-41
2022/05/27 02:30:33;;;;;;;;;;;;;;;28.33;30.26;101072.47;5056457;28;1961;-42
2022/05/27 02:36:06;;;;;;;;;;;;;;;28.24;30.43;101064.41;5069791;28;1295;-41
2022/05/27 02:38:31;;;;;;;;;;;;;;;28.21;30.55;101066.66;5057891;28;822;-41
2022/05/27 02:41:15;;;;;;;;;;;;;;;28.20;29.71;101073.06;5057960;28;781;-41
2022/05/27 02:43:40;;;;;;;;;;;;;;;28.21;30.77;101070.19;5071790;28;807;-41
2022/05/27 02:46:19;;;;;;;;;;;;;;;28.24;30.21;101069.81;5075382;28;870;-41
2022/05/27 02:48:48;;;;;;;;;;;;;;;28.23;30.64;101067.28;5057995;28;841;-41
2022/05/27 02:51:14;;;;;;;;;;;;;;;28.30;30.40;101075.53;5057134;28;1902;-41
2022/05/27 02:53:42;;;;;;;;;;;;;;;28.24;30.83;101077.13;5075238;28;1012;-42
2022/05/27 02:56:16;;;;;;;;;;;;;;;28.10;31.71;101078.75;5056948;28;1084;-42
2022/05/27 02:58:41;;;;;;;;;;;;;;;27.49;34.46;101075.75;5076009;28;852;-44
2022/05/27 03:01:06;;;;;;;;;;;;;;;27.14;35.07;101080.66;5075371;28;848;-44
2022/05/27 03:03:31;;;;;;;;;;;;;;;26.98;35.94;101078.81;5075427;28;804;-43
2022/05/27 03:06:15;;;;;;;;;;;;;;;26.90;36.57;101079.69;5075642;28;1202;-45
2022/05/27 03:08:46;;;;;;;;;;;;;;;26.77;36.70;101086.50;5078292;28;1032;-45
2022/05/27 03:11:30;;;;;;;;;;;;;;;26.81;36.42;101078.88;5078967;28;1901;-45
2022/05/27 03:14:14;;;;;;;;;;;;;;;26.74;37.09;101083.28;5078718;28;1247;-46
2022/05/27 03:16:54;;;;;;;;;;;;;;;26.67;36.94;101088.53;5078424;28;1056;-45
2022/05/27 03:19:26;;;;;;;;;;;;;;;26.65;37.18;101094.09;5078507;28;1080;-48
2022/05/27 03:21:54;;;;;;;;;;;;;;;26.58;37.24;101090.38;5078901;28;1143;-47
2022/05/27 03:24:21;;;;;;;;;;;;;;;26.57;37.08;101096.81;5078750;28;1076;-46
2022/05/27 03:27:03;;;;;;;;;;;;;;;26.60;37.27;101091.06;5060242;28;1090;-47
2022/05/27 03:29:29;;;;;;;;;;;;;;;26.52;36.92;101086.53;5056511;28;825;-45
2022/05/27 03:31:59;;;;;;;;;;;;;;;26.55;37.76;101089.88;5059731;28;1984;-44
2022/05/27 03:34:38;;;;;;;;;;;;;;;26.60;37.68;101090.22;5061026;28;1052;-45
2022/05/27 03:37:15;;;;;;;;;;;;;;;26.54;38.22;101097.16;5061309;28;746;-46
2022/05/27 03:39:44;;;;;;;;;;;;;;;23.18;46.06;101104.28;5059429;28;1091;-49
2022/05/27 03:42:09;;;;;;;;;;;;;;;21.77;50.42;101104.50;5060685;28;808;-48
2022/05/27 03:44:35;;;;;;;;;;;;;;;22.72;48.43;101108.50;5059920;28;901;-48
2022/05/27 03:47:00;;;;;;;;;;;;;;;22.37;48.74;101108.09;5078015;28;919;-47
2022/05/27 03:49:25;;;;;;;;;;;;;;;23.30;46.70;101110.31;5078328;28;773;-45
2022/05/27 03:51:58;;;;;;;;;;;;;;;24.59;43.28;101112.97;5078488;28;1905;-45
2022/05/27 03:54:24;;;;;;;;;;;;;;;25.28;41.99;101116.75;5060025;28;838;-51
2022/05/27 03:56:49;;;;;;;;;;;;;;;25.65;41.14;101115.59;5078604;28;750;-50
2022/05/27 03:59:15;;;;;;;;;;;;;;;25.49;41.53;101124.41;5071312;28;967;-50
2022/05/27 04:01:41;;;;;;;;;;;;;;;25.50;41.03;101127.97;5077276;28;1258;-54
2022/05/27 04:04:07;;;;;;;;;;;;;;;26.00;39.82;101117.34;5076944;28;793;-52
2022/05/27 04:06:32;;;;;;;;;;;;;;;26.38;38.61;101120.41;5077168;28;782;-50
2022/05/27 04:08:58;;;;;;;;;;;;;;;26.56;37.77;101121.25;5077914;28;754;-55
2022/05/27 04:11:23;;;;;;;;;;;;;;;26.67;38.23;101122.75;5077641;28;1976;-58
2022/05/27 04:13:49;;;;;;;;;;;;;;;26.73;38.00;101124.75;5078075;28;941;-55
2022/05/27 04:16:14;;;;;;;;;;;;;;;26.83;37.44;101119.16;5077919;28;746;-57
2022/05/27 04:18:39;;;;;;;;;;;;;;;26.85;37.31;101119.84;5077776;28;841;-58
2022/05/27 04:21:05;;;;;;;;;;;;;;;26.86;37.73;101118.84;5078268;28;1565;-55
2022/05/27 04:23:30;;;;;;;;;;;;;;;26.90;37.69;101126.44;5077423;28;867;-57
2022/05/27 04:25:55;;;;;;;;;;;;;;;26.88;37.79;101127.59;5077541;28;1153;-47
2022/05/27 04:28:21;;;;;;;;;;;;;;;26.93;37.71;101129.78;5071506;28;821;-49
2022/05/27 04:30:46;;;;;;;;;;;;;;;26.90;37.48;101126.44;5077293;28;1968;-53
2022/05/27 04:33:12;;;;;;;;;;;;;;;26.92;38.00;101128.97;5060064;28;850;-48
2022/05/27 04:35:37;;;;;;;;;;;;;;;26.99;37.91;101138.03;5077579;28;853;-56
2022/05/27 04:38:02;;;;;;;;;;;;;;;27.08;38.07;101138.03;5077859;28;837;-53
2022/05/27 04:40:28;;;;;;;;;;;;;;;27.12;38.36;101142.09;5076870;28;1091;-56
2022/05/27 04:42:53;;;;;;;;;;;;;;;27.21;38.25;101141.03;5077102;28;1263;-58
2022/05/27 04:45:20;;;;;;;;;;;;;;;27.22;37.83;101145.44;5075931;28;1207;-58
2022/05/27 04:47:45;;;;;;;;;;;;;;;27.22;37.96;101148.16;5076756;28;1515;-58
2022/05/27 04:50:11;;;;;;;;;;;;;;;27.25;37.75;101137.00;5076544;28;1969;-59
2022/05/27 04:52:36;;;;;;;;;;;;;;;27.27;38.16;101134.09;5076462;28;1258;-59
2022/05/27 04:55:02;;;;;;;;;;;;;;;27.13;38.04;101144.63;5073285;28;1151;-53
2022/05/27 04:57:31;;;;;;;;;;;;;;;27.24;38.08;101135.28;5066302;28;1176;-55
2022/05/27 04:59:57;;;;;;;;;;;;;;;27.25;38.07;101141.53;5051195;28;848;-56
2022/05/27 05:02:23;;;;;;;;;;;;;;;27.24;38.11;101140.69;5067759;28;802;-57
2022/05/27 05:04:49;;;;;;;;;;;;;;;27.29;38.30;101150.13;5069801;28;844;-60
2022/05/27 05:07:14;;;;;;;;;;;;;;;27.28;37.76;101143.06;5068707;28;837;-55
2022/05/27 05:09:41;;;;;;;;;;;;;;;27.30;37.82;101147.25;5066794;28;836;-58
2022/05/27 05:12:07;;;;;;;;;;;;;;;27.33;38.07;101141.50;5063079;28;1992;-60
2022/05/27 05:14:32;;;;;;;;;;;;;;;27.36;38.18;101148.44;5064221;28;978;-58
2022/05/27 05:16:57;;;;;;;;;;;;;;;27.39;38.66;101151.59;5064182;28;881;-59
2022/05/27 05:19:22;;;;;;;;;;;;;;;27.42;38.25;101149.56;5063942;28;825;-52
2022/05/27 05:21:48;;;;;;;;;;;;;;;27.45;38.39;101150.06;5063671;28;855;-60
2022/05/27 05:24:13;;;;;;;;;;;;;;;27.47;38.33;101150.75;5067631;28;880;-58
2022/05/27 05:26:38;;;;;;;;;;;;;;;27.46;38.74;101146.34;5069493;28;1036;-56
2022/05/27 05:29:06;;;;;;;;;;;;;;;27.47;38.89;101142.63;5066654;28;830;-57
2022/05/27 05:31:31;;;;;;;;;;;;;;;27.51;38.18;101133.16;5070340;28;1977;-58
2022/05/27 05:33:59;;;;;;;;;;;;;;;27.53;38.08;101138.38;5068993;28;837;-59
2022/05/27 05:36:25;;;;;;;;;;;;;;;27.55;38.12;101135.50;5068456;28;845;-60
2022/05/27 05:38:50;;;;;;;;;;;;;;;27.55;38.00;101136.34;5066187;28;928;-54
2022/05/27 05:41:26;;;;;;;;;;;;;;;27.57;37.80;101134.31;5067648;28;944;-57
2022/05/27 05:43:51;;;;;;;;;;;;;;;27.62;38.15;101134.63;5066964;28;860;-58
2022/05/27 05:46:17;;;;;;;;;;;;;;;27.54;33.49;101133.81;5067046;28;909;-53
2022/05/27 05:48:42;;;;;;;;;;;;;;;27.56;36.19;101131.78;5068106;28;820;-52
2022/05/27 05:51:07;;;;;;;;;;;;;;;27.67;37.11;101128.69;5069101;28;1897;-53
2022/05/27 05:53:32;;;;;;;;;;;;;;;27.69;37.17;101133.94;5071058;28;806;-56
2022/05/27 05:55:58;;;;;;;;;;;;;;;27.69;37.78;101126.69;5068843;28;1175;-54
2022/05/27 05:58:24;;;;;;;;;;;;;;;27.73;37.63;101125.28;5075355;28;840;-52
2022/05/27 06:00:49;;;;;;;;;;;;;;;27.74;37.64;101124.28;5075330;28;893;-52
2022/05/27 06:03:14;;;;;;;;;;;;;;;27.73;37.82;101119.91;5076020;28;883;-57
2022/05/27 06:05:42;;;;;;;;;;;;;;;27.80;38.02;101120.03;5074558;28;765;-54
2022/05/27 06:08:07;;;;;;;;;;;;;;;27.79;38.08;101120.19;5075162;28;825;-57
2022/05/27 06:10:33;;;;;;;;;;;;;;;27.85;38.22;101111.38;5057151;28;1963;-59
2022/05/27 06:12:58;;;;;;;;;;;;;;;27.85;38.12;101112.22;5076182;28;927;-54
2022/05/27 06:15:23;;;;;;;;;;;;;;;27.91;37.87;101112.53;5075530;28;915;-55
2022/05/27 06:17:49;;;;;;;;;;;;;;;27.89;37.61;101114.56;5075501;28;931;-57
2022/05/27 06:20:14;;;;;;;;;;;;;;;27.93;37.68;101110.47;5076232;28;817;-57
2022/05/27 06:22:39;;;;;;;;;;;;;;;27.95;37.57;101109.28;5075662;28;850;-55
2022/05/27 06:25:05;;;;;;;;;;;;;;;27.94;37.65;101101.34;5073806;28;1164;-58
2022/05/27 06:27:30;;;;;;;;;;;;;;;28.00;37.09;101103.31;5075750;28;1210;-49
2022/05/27 06:35:23;;;;;;;;;;;;;;;28.08;37.44;101103.25;5075930;28;840;-48
2022/05/27 06:37:49;;;;;;;;;;;;;;;28.09;37.39;101107.63;5057381;28;900;-51
2022/05/27 06:40:14;;;;;;;;;;;;;;;28.23;37.28;101105.16;5076841;28;849;-47
2022/05/27 06:42:40;;;;;;;;;;;;;;;28.26;37.36;101112.91;5079635;28;813;-58
2022/05/27 06:45:06;;;;;;;;;;;;;;;28.27;37.18;101101.09;5060588;28;914;-56
2022/05/27 06:47:31;;;;;;;;;;;;;;;28.26;36.76;101098.56;5079891;28;807;-55
2022/05/27 06:49:56;;;;;;;;;;;;;;;28.41;36.94;101098.63;5075790;28;850;-58
2022/05/27 06:52:24;;;;;;;;;;;;;;;28.35;36.82;101092.09;5072735;28;1965;-57
2022/05/27 06:54:49;;;;;;;;;;;;;;;28.33;37.45;101092.25;5072757;28;861;-59
2022/05/27 06:57:15;;;;;;;;;;;;;;;28.31;37.85;101096.97;5073256;28;809;-61
2022/05/27 06:59:40;;;;;;;;;;;;;;;28.32;37.80;101087.84;5071945;28;914;-60
2022/05/27 07:02:05;;;;;;;;;;;;;;;28.35;37.69;101092.09;5073631;28;825;-60
2022/05/27 07:04:31;;;;;;;;;;;;;;;28.41;37.35;101090.53;5071330;28;886;-59
2022/05/27 07:06:57;;;;;;;;;;;;;;;28.44;36.86;101093.72;5072286;28;904;-60
2022/05/27 07:09:22;;;;;;;;;;;;;;;28.41;37.49;101087.81;5053990;28;1010;-58
2022/05/27 07:11:49;;;;;;;;;;;;;;;28.40;37.48;101091.53;5072032;28;1901;-57
2022/05/27 07:14:15;;;;;;;;;;;;;;;28.39;37.57;101093.41;5070940;28;1074;-54
2022/05/27 07:16:41;;;;;;;;;;;;;;;28.43;37.29;101092.00;5071905;28;878;-53
2022/05/27 07:19:06;;;;;;;;;;;;;;;28.47;36.97;101097.91;5071272;28;844;-55
2022/05/27 07:21:35;;;;;;;;;;;;;;;28.35;37.00;101076.69;5071386;28;910;-59
2022/05/27 07:24:01;;;;;;;;;;;;;;;28.48;37.24;101092.28;5070362;28;841;-56
2022/05/27 07:26:27;;;;;;;;;;;;;;;28.45;37.17;101094.53;5072501;28;1058;-53
2022/05/27 07:28:53;;;;;;;;;;;;;;;28.46;37.15;101088.09;5072190;28;911;-55
2022/05/27 07:31:18;;;;;;;;;;;;;;;28.52;36.84;101091.94;5071169;28;1979;-60
2022/05/27 07:33:45;;;;;;;;;;;;;;;28.56;36.75;101087.84;5071874;28;840;-57
2022/05/27 07:36:10;;;;;;;;;;;;;;;28.59;36.27;101087.47;5072606;28;793;-57
2022/05/27 07:38:36;;;;;;;;;;;;;;;28.58;36.43;101086.63;5071997;28;785;-57
2022/05/27 07:41:01;;;;;;;;;;;;;;;28.60;35.57;101089.13;5070464;28;1127;-55
2022/05/27 07:43:26;;;;;;;;;;;;;;;28.64;35.72;101089.59;5069968;28;817;-55
2022/05/27 07:45:52;;;;;;;;;;;;;;;28.67;35.50;101084.66;5071036;28;981;-60
2022/05/27 07:48:17;;;;;;;;;;;;;;;28.67;35.84;101090.09;5053967;28;974;-59
2022/05/27 07:50:43;;;;;;;;;;;;;;;28.69;35.53;101087.19;5071771;28;1963;-58
2022/05/27 07:53:08;;;;;;;;;;;;;;;28.68;35.66;101082.78;5069891;28;905;-60
2022/05/27 07:55:33;;;;;;;;;;;;;;;28.68;35.42;101083.63;5072105;28;934;-59
2022/05/27 07:57:59;;;;;;;;;;;;;;;28.69;35.95;101084.50;5070526;28;962;-56
2022/05/27 08:00:25;;;;;;;;;;;;;;;28.73;35.39;101091.19;5071408;28;1199;-55
2022/05/27 08:02:50;;;;;;;;;;;;;;;28.72;35.23;101089.53;5072928;28;1187;-55
2022/05/27 08:05:17;;;;;;;;;;;;;;;28.73;35.07;101091.19;5068581;28;1063;-58
2022/05/27 08:07:42;;;;;;;;;;;;;;;28.76;34.74;101090.81;5071732;28;1153;-61
2022/05/27 08:10:08;;;;;;;;;;;;;;;28.77;34.66;101087.09;5070592;28;836;-57
2022/05/27 08:12:33;;;;;;;;;;;;;;;28.78;34.71;101096.06;5070849;28;1898;-59
2022/05/27 08:14:58;;;;;;;;;;;;;;;28.78;34.60;101091.47;5072770;28;940;-59
2022/05/27 08:17:23;;;;;;;;;;;;;;;28.80;34.62;101088.59;5071847;28;881;-59
2022/05/27 08:19:49;;;;;;;;;;;;;;;28.81;34.45;101090.28;5072083;28;827;-60
2022/05/27 08:22:14;;;;;;;;;;;;;;;28.79;34.43;101095.88;5069729;28;1042;-60
2022/05/27 08:24:39;;;;;;;;;;;;;;;28.80;34.41;101089.44;5070662;28;872;-61
2022/05/27 08:27:05;;;;;;;;;;;;;;;28.69;34.75;101084.50;5070084;28;1337;-44
2022/05/27 08:29:30;;;;;;;;;;;;;;;28.80;34.50;101083.16;5071705;28;839;-48
2022/05/27 08:31:55;;;;;;;;;;;;;;;28.81;34.12;101090.28;5070359;28;1955;-47
2022/05/27 08:39:48;;;;;;;;;;;;;;;28.83;34.18;101089.06;5070744;28;800;-45
2022/05/27 08:42:19;;;;;;;;;;;;;;;28.83;34.46;101091.75;5070794;28;857;-48
2022/05/27 08:44:48;;;;;;;;;;;;;;;28.87;34.47;101085.97;5070501;28;1032;-52
2022/05/27 08:47:24;;;;;;;;;;;;;;;28.86;34.02;101082.44;5069289;28;1029;-49
2022/05/27 08:49:51;;;;;;;;;;;;;;;28.91;34.12;101076.47;5052753;28;928;-49
2022/05/27 08:52:29;;;;;;;;;;;;;;;28.84;34.40;101081.78;5071001;28;2237;-50
2022/05/27 08:54:58;;;;;;;;;;;;;;;28.87;34.31;101073.28;5068067;28;1055;-54
2022/05/27 09:00:08;;;;;;;;;;;;;;;28.90;34.51;101080.19;5067645;28;936;-46
2022/05/27 09:02:37;;;;;;;;;;;;;;;28.92;34.14;101084.41;5069351;28;944;-47
2022/05/27 09:05:21;;;;;;;;;;;;;;;28.92;33.97;101078.97;5050630;28;973;-51
2022/05/27 09:07:47;;;;;;;;;;;;;;;28.96;33.90;101071.31;5070849;28;991;-45
2022/05/27 09:10:13;;;;;;;;;;;;;;;29.01;33.82;101077.03;5068838;28;1030;-45
2022/05/27 09:12:52;;;;;;;;;;;;;;;28.98;33.86;101069.28;5070688;28;1971;-45
2022/05/27 09:15:26;;;;;;;;;;;;;;;28.98;34.06;101073.88;5052047;28;817;-47
2022/05/27 09:17:54;;;;;;;;;;;;;;;29.00;34.06;101074.50;5070925;28;911;-47
2022/05/27 09:20:35;;;;;;;;;;;;;;;28.98;33.82;101066.56;5069986;28;864;-53
2022/05/27 09:23:04;;;;;;;;;;;;;;;29.00;34.20;101074.50;5069180;28;817;-56
2022/05/27 09:25:33;;;;;;;;;;;;;;;28.96;34.31;101066.72;5069810;28;899;-52
2022/05/27 09:28:01;;;;;;;;;;;;;;;29.08;34.20;101063.56;5049579;28;849;-42
2022/05/27 09:30:26;;;;;;;;;;;;;;;29.03;33.92;101066.03;5069536;28;1975;-41
2022/05/27 09:32:54;;;;;;;;;;;;;;;29.04;34.04;101065.84;5053395;28;1099;-41
2022/05/27 09:35:22;;;;;;;;;;;;;;;29.06;34.12;101071.88;5053230;28;836;-41
2022/05/27 09:37:49;;;;;;;;;;;;;;;29.04;34.04;101067.69;5053008;28;848;-40
2022/05/27 09:40:16;;;;;;;;;;;;;;;29.07;34.09;101059.19;5050403;28;993;-41
2022/05/27 09:42:54;;;;;;;;;;;;;;;29.05;33.99;101064.81;5070827;28;1013;-41
2022/05/27 09:45:20;;;;;;;;;;;;;;;29.03;33.82;101057.91;5052486;28;1083;-43
2022/05/27 09:47:45;;;;;;;;;;;;;;;29.06;34.29;101057.53;5068138;28;965;-41
2022/05/27 09:50:24;;;;;;;;;;;;;;;29.06;34.00;101052.94;5066742;28;970;-42
2022/05/27 09:52:49;;;;;;;;;;;;;;;29.04;34.28;101060.44;5066495;28;1164;-43
2022/05/27 09:55:16;;;;;;;;;;;;;;;29.01;34.46;101054.53;5051831;28;1044;-41
2022/05/27 09:57:55;;;;;;;;;;;;;;;29.00;34.72;101055.53;5051281;28;1022;-41
2022/05/27 10:00:41;;;;;;;;;;;;;;;29.03;34.58;101047.88;5067697;28;1251;-41
2022/05/27 10:03:23;;;;;;;;;;;;;;;29.06;34.62;101044.81;5066898;28;1255;-41
2022/05/27 10:05:52;;;;;;;;;;;;;;;29.09;34.50;101047.13;5067156;28;1164;-42
2022/05/27 10:08:28;;;;;;;;;;;;;;;29.11;34.39;101048.81;5066648;28;978;-41
2022/05/27 10:11:13;;;;;;;;;;;;;;;29.11;34.27;101051.53;5065105;28;1973;-40
2022/05/27 10:13:41;;;;;;;;;;;;;;;29.16;34.24;101041.78;5028663;28;1229;-42
2022/05/27 10:16:25;;;;;;;;;;;;;;;29.17;34.30;101042.66;5067790;28;1242;-41
2022/05/27 10:19:04;;;;;;;;;;;;;;;29.09;34.51;101038.19;5046499;28;1546;-46
2022/05/27 10:21:31;;;;;;;;;;;;;;;29.03;34.57;101036.25;5066779;28;993;-44
2022/05/27 10:24:04;;;;;;;;;;;;;;;29.05;34.57;101039.56;5070139;28;1265;-44
2022/05/27 10:26:30;;;;;;;;;;;;;;;29.07;34.38;101037.53;5049193;28;1664;-44
2022/05/27 10:29:02;;;;;;;;;;;;;;;29.07;34.70;101032.09;5068065;28;1187;-45
2022/05/27 10:31:27;;;;;;;;;;;;;;;29.03;34.86;101028.94;5065312;28;2012;-47
2022/05/27 10:33:53;;;;;;;;;;;;;;;29.06;34.27;101035.84;5069136;28;1242;-44
2022/05/27 10:36:28;;;;;;;;;;;;;;;29.05;34.46;101026.88;5070587;28;1040;-45
2022/05/27 10:39:03;;;;;;;;;;;;;;;29.02;34.70;101035.38;5067528;28;1266;-44
2022/05/27 10:41:28;;;;;;;;;;;;;;;29.03;34.36;101025.41;5066683;28;969;-44
2022/05/27 10:44:09;;;;;;;;;;;;;;;29.00;34.67;101018.47;5068732;28;1088;-48
2022/05/27 10:46:37;;;;;;;;;;;;;;;28.95;34.80;101024.44;5066635;28;941;-47
2022/05/27 10:49:05;;;;;;;;;;;;;;;28.99;34.97;101021.38;5068854;28;1357;-43
2022/05/27 10:51:39;;;;;;;;;;;;;;;29.03;34.78;101025.41;5067491;28;1964;-46
2022/05/27 10:54:10;;;;;;;;;;;;;;;29.04;34.94;101013.53;5048334;28;1020;-46
2022/05/27 10:56:44;;;;;;;;;;;;;;;29.03;35.04;101017.28;5067146;28;1061;-45
2022/05/27 11:02:05;;;;;;;;;;;;;;;29.00;34.59;101012.22;5067884;28;994;-45
2022/05/27 11:04:31;;;;;;;;;;;;;;;29.04;34.45;101000.84;5068697;28;890;-44
2022/05/27 11:06:59;;;;;;;;;;;;;;;28.93;34.57;101003.97;5068283;28;1025;-49
2022/05/27 11:09:26;;;;;;;;;;;;;;;28.93;34.62;101009.41;5049949;28;788;-47
2022/05/27 11:11:56;;;;;;;;;;;;;;;28.95;35.06;101007.34;5048973;28;1971;-48
2022/05/27 11:17:20;;;;;;;;;;;;;;;28.97;34.50;100999.91;5050173;28;829;-46
2022/05/27 11:19:52;;;;;;;;;;;;;;;28.96;34.65;101001.75;5066758;28;782;-47
2022/05/27 11:22:22;;;;;;;;;;;;;;;28.94;34.75;100970.47;5067246;28;827;-48
2022/05/27 11:24:47;;;;;;;;;;;;;;;28.99;34.82;100999.72;5045782;28;876;-46
2022/05/27 11:27:20;;;;;;;;;;;;;;;28.48;34.74;100902.88;5063863;28;1118;-51
2022/05/27 11:29:45;;;;;;;;;;;;;;;29.02;34.66;100978.53;5068293;28;831;-46
2022/05/27 11:32:23;;;;;;;;;;;;;;;29.02;34.87;100980.38;5069482;28;1949;-46
2022/05/27 11:34:48;;;;;;;;;;;;;;;29.03;34.51;100982.06;5070917;28;967;-43
2022/05/27 11:37:22;;;;;;;;;;;;;;;29.05;34.24;100977.28;5077807;28;793;-44
2022/05/27 11:39:51;;;;;;;;;;;;;;;29.06;33.99;100976.28;5078841;28;842;-49
2022/05/27 11:42:19;;;;;;;;;;;;;;;28.99;34.33;100975.34;5078293;28;813;-45
2022/05/27 11:44:47;;;;;;;;;;;;;;;28.92;34.32;100964.41;5078575;28;802;-45
2022/05/27 11:47:13;;;;;;;;;;;;;;;28.83;34.55;100960.97;5078298;28;798;-46
2022/05/27 11:49:57;;;;;;;;;;;;;;;28.89;34.64;100964.78;5078006;28;805;-48
2022/05/27 11:52:42;;;;;;;;;;;;;;;28.82;34.66;100962.84;5073138;28;2333;-44
2022/05/27 11:55:13;;;;;;;;;;;;;;;28.81;34.75;100960.34;5027235;28;1118;-47
2022/05/27 11:58:08;;;;;;;;;;;;;;;28.91;35.04;100958.13;5060439;28;845;-46
2022/05/27 12:00:35;;;;;;;;;;;;;;;28.93;35.20;100958.78;4988055;28;1046;-42
2022/05/27 12:03:11;;;;;;;;;;;;;;;28.95;34.92;100940.50;5058788;28;1199;-45
2022/05/27 12:05:38;;;;;;;;;;;;;;;28.92;34.85;100946.28;5059590;28;860;-43
2022/05/27 12:08:11;;;;;;;;;;;;;;;28.97;34.90;100929.50;5059848;28;865;-44
2022/05/27 12:10:47;;;;;;;;;;;;;;;28.93;35.36;100930.88;5059453;28;1963;-44
2022/05/27 12:13:21;;;;;;;;;;;;;;;28.38;36.65;100934.78;5078105;28;734;-45
2022/05/27 12:15:52;;;;;;;;;;;;;;;28.13;37.80;100931.50;5076757;28;1552;-44
2022/05/27 12:18:22;;;;;;;;;;;;;;;27.30;39.14;100930.31;5060080;28;780;-42
2022/05/27 12:20:48;;;;;;;;;;;;;;;27.30;39.91;100912.28;5060259;28;900;-46
2022/05/27 12:23:13;;;;;;;;;;;;;;;27.58;39.30;100913.56;5058815;28;1187;-46
2022/05/27 12:25:43;;;;;;;;;;;;;;;28.39;36.55;100916.69;5077328;28;1179;-45
2022/05/27 12:28:08;;;;;;;;;;;;;;;28.68;36.38;100912.25;5058439;28;1116;-44
2022/05/27 12:30:35;;;;;;;;;;;;;;;28.72;36.18;100900.88;5077720;28;1913;-45
2022/05/27 12:33:01;;;;;;;;;;;;;;;28.73;35.88;100905.25;5059512;28;826;-43
2022/05/27 12:35:32;;;;;;;;;;;;;;;28.79;35.88;100911.78;5058909;28;1089;-44
2022/05/27 12:38:15;;;;;;;;;;;;;;;28.73;35.83;100905.25;5077251;28;1041;-44
2022/05/27 12:40:44;;;;;;;;;;;;;;;28.71;35.77;100901.88;5074182;28;1587;-44
2022/05/27 12:43:20;;;;;;;;;;;;;;;28.75;35.67;100906.91;5075840;28;1219;-45
2022/05/27 12:45:52;;;;;;;;;;;;;;;28.67;36.11;100897.06;5075102;28;1207;-46
2022/05/27 12:48:25;;;;;;;;;;;;;;;28.69;36.02;100889.59;5076853;28;1207;-44
2022/05/27 12:50:53;;;;;;;;;;;;;;;28.64;36.12;100890.16;5059201;28;1969;-43
2022/05/27 12:53:20;;;;;;;;;;;;;;;28.66;36.08;100888.09;5076338;28;1164;-42
2022/05/27 13:01:21;;;;;;;;;;;;;;;28.68;36.36;100882.47;5076401;28;1211;-43
2022/05/27 13:03:48;;;;;;;;;;;;;;;28.69;35.83;100884.19;5076425;28;1239;-43
2022/05/27 13:06:19;;;;;;;;;;;;;;;28.64;35.89;100887.47;5076328;28;1234;-43
2022/05/27 13:08:51;;;;;;;;;;;;;;;28.69;36.23;100889.59;5076000;28;1231;-43
2022/05/27 13:11:33;;;;;;;;;;;;;;;28.73;36.06;100882.75;5077236;28;1894;-44
2022/05/27 13:14:05;;;;;;;;;;;;;;;28.75;36.10;100877.16;5077234;28;748;-47
2022/05/27 13:16:31;;;;;;;;;;;;;;;28.28;29.23;100874.72;5076638;28;802;-44
2022/05/27 13:19:01;;;;;;;;;;;;;;;28.23;27.61;100873.38;5076057;28;938;-46
2022/05/27 13:21:27;;;;;;;;;;;;;;;28.33;30.95;100865.00;5076778;28;817;-46
2022/05/27 13:23:57;;;;;;;;;;;;;;;28.34;32.30;100868.56;5076789;28;824;-44
2022/05/27 13:26:33;;;;;;;;;;;;;;;28.32;32.38;100874.13;5057750;28;1164;-44
2022/05/27 13:28:59;;;;;;;;;;;;;;;28.31;30.24;100863.50;5070525;28;789;-44
2022/05/27 13:31:44;;;;;;;;;;;;;;;28.31;31.85;100861.63;5076589;28;1913;-44